Página principal
METAR-TAF:

METAR-TAF

Aeroportos :

Terceira, Açores, Portugal

Base Aérea das Lajes

latitude: 38-46N, longitude: 027-06W, altura: 52 m

Observação actual do tempo

O boletim foi feito há 25 minutos, às 17:00 UTC
Temperatura 24°C
Humidade 74%
Pressão 1026 hPa
Visibilidade 10 km ou mais
Nuvens dispersasa uma altura de 3000 ft

METAR: LPLA 191700Z /////KT 9999 SCT030 24/19 Q1026

Hora: 17:25 (17:25 UTC)

Previsão

O boletim foi feito há 6 horas e 25 minutos, às 11:00 UTC
Previsão válida de 19 às 12 UTC a 20 às 12 UTC
Vento 5 kt com direcção variável
Visibilidade 10 km ou mais
Poucas nuvensa uma altura de 2500 ft
Nuvens dispersasa uma altura de 4000 ft

TAF: LPLA 191100Z 1912/2012 VRB05KT 9999 FEW025 SCT040

Observações e previsões do tempo de mais de 4000 aeroportos (mensagens METAR e TAF).

As estações disponíveis são os pontos amarelos e vermelhos sobre o mapa.

Mova o rato sobre o mapa para ver o nome da estação.

Depois clique no ponto para visualizar as observações e previsões meteorológicas.

Para alterar o mapa : clique nos botões verdes com uma cruz preta para aumentar o zoom; no botão verde com uma pitada de zoom; ou nas setas verdes para mapas adjacentes.


METAR-TAF: